Buford, North Dakota
Current Conditions -  °F | °C
As of 2:52 PM on Saturday 22 Nov 2014 (Local Time) from KISN Reporting Station
Broken Clouds Broken Clouds  
Wind Chill: 37°   Ceiling: 8000
Heat Index: 42°   Visibility: 10mi
Dew Point: 30°   Wind: 9mph
Humidity: 62%   Direction: 220°SW
Pressure: 29.24"   Gusts: NA
Location:  48.3082°N, 103.697°W
Report Text: KISN 222052Z AUTO 22008KT 10SM BKN080 BKN120 06/M01 A2924 RMK AO2 SLP919 60000 T00561011 56026
Loading
Personal Weather Stations






























Interactive Weather Map New forecast layout! Learn more

10-Day Weather Forecast

Advertisements
Track Severe Weather on mobile